Time;durP1;ratioP1;P1;durP2;ratioP2;P2;SDS_P1;SDS_P2;PMS_P1;PMS_P2;Temp;Humidity;BMP_temperature;BMP_pressure;BME280_temperature;BME280_humidity;BME280_pressure;Samples;Min_cycle;Max_cycle;Signal;HPM_P1;HPM_P2
2022/11/14 00:00:57;;;;;;;11.80;9.53;;;8.00;99.90;;;;;;4976118;28;20524;-72
2022/11/14 00:03:23;;;;;;;10.57;9.47;;;7.90;99.90;;;;;;4976122;28;20261;-72
2022/11/14 00:05:48;;;;;;;11.30;9.30;;;7.90;99.90;;;;;;4976124;28;20542;-72
2022/11/14 00:08:21;;;;;;;11.67;8.87;;;7.80;99.90;;;;;;4976095;28;20201;-71
2022/11/14 00:10:48;;;;;;;13.93;8.70;;;7.70;99.90;;;;;;4975894;28;20174;-73
2022/11/14 00:13:15;;;;;;;10.70;9.00;;;7.70;99.90;;;;;;4975865;28;21023;-73
2022/11/14 00:15:42;;;;;;;11.73;8.67;;;7.60;99.90;;;;;;4976017;28;20437;-73
2022/11/14 00:18:07;;;;;;;11.53;8.60;;;7.60;99.90;;;;;;4975795;28;20536;-73
2022/11/14 00:20:33;;;;;;;12.67;8.57;;;7.60;99.90;;;;;;4975829;28;20576;-73
2022/11/14 00:22:58;;;;;;;12.93;8.90;;;7.60;99.90;;;;;;4975499;28;20602;-73
2022/11/14 00:25:24;;;;;;;10.80;8.57;;;7.60;99.90;;;;;;4975548;28;20169;-73
2022/11/14 00:27:49;;;;;;;10.97;9.03;;;7.60;99.90;;;;;;4975632;28;20180;-73
2022/11/14 00:30:15;;;;;;;11.70;8.60;;;7.50;99.90;;;;;;4975597;28;20173;-77
2022/11/14 00:32:40;;;;;;;11.20;9.03;;;7.50;99.90;;;;;;4975259;28;20218;-75
2022/11/14 00:35:08;;;;;;;10.80;8.90;;;7.50;99.90;;;;;;4975441;28;20178;-76
2022/11/14 00:37:34;;;;;;;12.03;9.07;;;7.40;99.90;;;;;;4975548;28;20206;-76
2022/11/14 00:39:59;;;;;;;10.77;9.13;;;7.40;99.90;;;;;;4975185;28;20432;-76
2022/11/14 00:42:25;;;;;;;9.57;8.57;;;7.40;99.90;;;;;;4971448;28;20476;-74
2022/11/14 00:44:50;;;;;;;14.30;10.23;;;7.30;99.90;;;;;;4975667;28;20266;-75
2022/11/14 00:47:16;;;;;;;10.30;7.77;;;7.30;99.90;;;;;;4975440;28;20181;-75
2022/11/14 00:49:41;;;;;;;9.57;8.67;;;7.30;99.90;;;;;;4975387;28;20265;-75
2022/11/14 00:52:07;;;;;;;13.20;9.53;;;7.20;99.90;;;;;;4975356;28;20201;-75
2022/11/14 00:54:32;;;;;;;19.00;9.07;;;7.20;99.90;;;;;;4975228;28;20245;-75
2022/11/14 00:56:58;;;;;;;12.20;8.60;;;7.10;99.90;;;;;;4975229;28;20197;-75
2022/11/14 00:59:23;;;;;;;12.13;9.30;;;7.10;99.90;;;;;;4974523;28;20189;-72
2022/11/14 01:01:49;;;;;;;9.67;8.57;;;7.00;99.90;;;;;;4975032;28;20213;-75
2022/11/14 01:04:14;;;;;;;10.93;9.67;;;7.00;99.90;;;;;;4975131;28;20538;-77
2022/11/14 01:06:40;;;;;;;11.37;9.50;;;7.00;99.90;;;;;;4975047;28;20178;-75
2022/11/14 01:09:06;;;;;;;8.90;8.00;;;6.90;99.90;;;;;;4967035;28;20185;-78
2022/11/14 01:11:32;;;;;;;14.80;10.30;;;6.90;99.90;;;;;;4965994;28;20257;-76
2022/11/14 01:13:57;;;;;;;9.53;8.50;;;6.90;99.90;;;;;;4955867;29;20430;-75
2022/11/14 01:16:23;;;;;;;13.27;10.23;;;6.80;99.90;;;;;;4955763;29;20190;-76
2022/11/14 01:18:49;;;;;;;10.47;8.80;;;6.80;99.90;;;;;;4955889;28;20272;-75
2022/11/14 01:21:14;;;;;;;11.97;9.67;;;6.70;99.90;;;;;;4965702;28;20184;-75
2022/11/14 01:23:40;;;;;;;12.00;9.60;;;6.70;99.90;;;;;;4964339;28;20677;-75
2022/11/14 01:26:08;;;;;;;11.13;8.77;;;6.70;99.90;;;;;;4964052;28;20175;-74
2022/11/14 01:28:34;;;;;;;12.20;9.77;;;6.60;99.90;;;;;;4961691;28;20194;-74
2022/11/14 01:31:20;;;;;;;10.40;9.00;;;6.60;99.90;;;;;;4964692;28;20864;-73
2022/11/14 05:32:19;;;;;;;14.23;11.33;;;5.00;99.90;;;;;;5122075;23;20496;-74
2022/11/14 05:34:45;;;;;;;11.00;9.53;;;5.00;99.90;;;;;;4975676;28;20432;-74
2022/11/14 05:37:10;;;;;;;14.10;10.80;;;5.00;99.90;;;;;;4975326;28;20645;-74
2022/11/14 05:39:36;;;;;;;15.53;10.40;;;4.90;99.90;;;;;;4958165;28;20344;-74
2022/11/14 05:42:01;;;;;;;11.90;10.03;;;4.90;99.90;;;;;;4975230;28;20182;-74
2022/11/14 05:44:27;;;;;;;13.40;9.50;;;4.90;99.90;;;;;;4975222;28;20189;-74
2022/11/14 05:46:52;;;;;;;20.20;10.80;;;4.80;99.90;;;;;;4975201;28;20531;-75
2022/11/14 05:49:18;;;;;;;16.93;11.23;;;4.80;99.90;;;;;;4975263;28;20192;-74
2022/11/14 05:51:43;;;;;;;12.50;9.10;;;4.80;99.90;;;;;;4975221;28;20205;-76
2022/11/14 05:54:09;;;;;;;13.70;10.20;;;4.80;99.90;;;;;;4975101;28;20182;-76
2022/11/14 05:56:34;;;;;;;15.43;11.97;;;4.80;99.90;;;;;;4975141;28;20193;-76
2022/11/14 05:59:00;;;;;;;11.13;9.10;;;4.80;99.90;;;;;;4975032;28;20539;-76
2022/11/14 06:01:26;;;;;;;14.87;10.90;;;4.80;99.90;;;;;;4975013;28;20181;-75
2022/11/14 06:03:52;;;;;;;14.50;9.20;;;4.80;99.90;;;;;;4974836;28;20600;-75
2022/11/14 06:06:20;;;;;;;11.47;9.20;;;4.80;99.90;;;;;;4974917;28;20439;-75
2022/11/14 06:08:46;;;;;;;14.90;10.30;;;4.80;99.90;;;;;;4974901;28;20495;-75
2022/11/14 06:11:17;;;;;;;12.10;9.87;;;4.80;99.90;;;;;;4974768;28;20508;-75
2022/11/14 06:13:43;;;;;;;11.80;10.13;;;4.80;99.90;;;;;;4974917;28;20441;-75
2022/11/14 06:16:11;;;;;;;16.40;11.30;;;4.70;99.90;;;;;;4974781;28;20584;-74
2022/11/14 06:18:37;;;;;;;17.23;9.93;;;4.70;99.90;;;;;;4974793;28;20532;-74
2022/11/14 06:21:10;;;;;;;13.80;10.13;;;4.70;99.90;;;;;;4974704;28;20420;-75
2022/11/14 06:23:35;;;;;;;13.80;9.30;;;4.70;99.90;;;;;;4974642;28;20522;-74
2022/11/14 06:26:04;;;;;;;15.40;10.63;;;4.70;99.90;;;;;;4974605;28;20457;-74
2022/11/14 06:28:30;;;;;;;13.20;10.20;;;4.60;99.90;;;;;;4974570;28;20730;-75
2022/11/14 06:31:00;;;;;;;20.60;10.33;;;4.60;99.90;;;;;;4974318;28;20472;-75
2022/11/14 06:33:27;;;;;;;12.00;10.30;;;4.60;99.90;;;;;;4974572;28;20272;-73
2022/11/14 06:36:06;;;;;;;15.07;10.80;;;4.60;99.90;;;;;;4973532;28;20588;-73
2022/11/14 06:38:34;;;;;;;13.63;10.17;;;4.60;99.90;;;;;;4972849;28;20447;-74
2022/11/14 06:41:07;;;;;;;12.20;10.43;;;4.60;99.90;;;;;;4972927;28;20486;-82
2022/11/14 06:43:40;;;;;;;15.30;11.93;;;4.60;99.90;;;;;;4973064;28;20481;-78
2022/11/14 06:46:08;;;;;;;13.23;10.43;;;4.60;99.90;;;;;;4973284;28;20434;-77
2022/11/14 06:48:34;;;;;;;15.10;10.63;;;4.70;99.90;;;;;;4973416;28;20800;-80
2022/11/14 06:51:01;;;;;;;12.07;10.13;;;4.60;99.90;;;;;;4972790;28;20428;-80
2022/11/14 06:53:28;;;;;;;13.50;9.90;;;4.70;99.90;;;;;;4958688;28;20453;-79
2022/11/14 06:56:00;;;;;;;12.33;10.80;;;4.70;99.90;;;;;;4954082;29;20422;-80
2022/11/14 06:58:31;;;;;;;15.43;10.83;;;4.70;99.90;;;;;;4954133;29;20452;-78
2022/11/14 07:01:05;;;;;;;15.07;11.67;;;4.70;99.90;;;;;;4953476;29;20929;-79
2022/11/14 07:03:30;;;;;;;15.60;10.80;;;4.80;99.90;;;;;;4953934;29;21035;-83
2022/11/14 07:06:03;;;;;;;11.23;9.63;;;4.80;99.90;;;;;;4956204;28;20472;-81
2022/11/14 07:08:29;;;;;;;13.60;9.40;;;4.80;99.90;;;;;;4953882;29;20185;-79
2022/11/14 07:11:06;;;;;;;15.83;9.70;;;4.90;99.90;;;;;;4953780;29;20519;-74
2022/11/14 07:13:33;;;;;;;12.33;10.47;;;4.90;99.90;;;;;;4953724;29;20462;-84
2022/11/14 07:15:58;;;;;;;14.20;10.17;;;5.10;99.90;;;;;;4953923;29;20472;-78
2022/11/14 07:18:24;;;;;;;15.13;8.50;;;5.40;99.90;;;;;;4953856;29;20913;-80
2022/11/14 07:21:00;;;;;;;13.53;9.83;;;5.60;99.90;;;;;;4953857;29;20225;-84
2022/11/14 07:23:25;;;;;;;11.90;9.80;;;5.70;99.90;;;;;;4953753;29;20745;-81
2022/11/14 07:25:51;;;;;;;15.03;9.53;;;5.80;99.90;;;;;;4953148;29;20509;-84
2022/11/14 07:28:16;;;;;;;18.03;9.83;;;5.80;99.90;;;;;;4953356;29;20285;-72
2022/11/14 07:30:42;;;;;;;11.83;9.03;;;5.80;99.90;;;;;;4936294;29;20225;-75
2022/11/14 07:33:08;;;;;;;13.10;9.23;;;5.80;99.90;;;;;;4953458;29;20195;-76
2022/11/14 07:35:34;;;;;;;12.67;9.00;;;5.80;99.90;;;;;;4952513;29;20657;-72
2022/11/14 07:38:01;;;;;;;17.30;10.10;;;5.80;99.90;;;;;;4952613;29;20449;-73
2022/11/14 07:40:27;;;;;;;16.90;11.43;;;5.90;99.90;;;;;;4952734;29;20823;-73
2022/11/14 07:43:00;;;;;;;19.53;11.73;;;6.10;99.90;;;;;;4969143;28;20469;-73
2022/11/14 07:45:27;;;;;;;16.43;11.47;;;6.20;99.90;;;;;;4972159;28;20202;-73
2022/11/14 07:47:56;;;;;;;16.60;10.80;;;6.30;99.90;;;;;;4972594;28;20484;-73
2022/11/14 07:50:22;;;;;;;19.50;12.17;;;6.30;99.90;;;;;;4972619;28;20421;-74
2022/11/14 07:52:51;;;;;;;24.10;11.13;;;6.20;99.90;;;;;;4975303;28;20507;-73
2022/11/14 07:55:18;;;;;;;27.33;10.80;;;6.30;99.90;;;;;;4976390;28;20174;-76
2022/11/14 07:57:43;;;;;;;19.83;10.40;;;6.30;99.90;;;;;;4976326;28;20444;-73
2022/11/14 08:00:09;;;;;;;17.03;10.67;;;6.40;99.90;;;;;;4976279;28;20943;-73
2022/11/14 08:02:35;;;;;;;19.37;9.90;;;6.40;99.90;;;;;;4976094;28;20743;-73
2022/11/14 08:05:01;;;;;;;17.90;9.67;;;6.50;99.90;;;;;;4976092;28;20433;-73
2022/11/14 08:07:26;;;;;;;14.07;9.70;;;6.50;99.90;;;;;;4976272;28;20177;-73
2022/11/14 08:09:52;;;;;;;19.30;10.87;;;6.60;99.90;;;;;;4975987;28;20173;-71
2022/11/14 08:12:17;;;;;;;15.93;9.80;;;6.70;99.90;;;;;;4976117;28;20181;-72
2022/11/14 08:14:43;;;;;;;16.13;10.07;;;6.80;99.90;;;;;;4975853;28;20516;-73
2022/11/14 08:17:08;;;;;;;18.23;10.97;;;6.90;99.90;;;;;;4975997;28;20178;-72
2022/11/14 08:19:34;;;;;;;14.87;10.33;;;7.00;99.90;;;;;;4976036;28;20193;-72
2022/11/14 08:21:59;;;;;;;18.30;10.07;;;7.10;99.90;;;;;;4975970;28;20178;-70
2022/11/14 08:24:25;;;;;;;18.60;9.33;;;7.20;99.90;;;;;;4975844;28;20213;-70
2022/11/14 08:26:50;;;;;;;16.93;10.33;;;7.20;99.90;;;;;;4975773;28;20178;-68
2022/11/14 08:29:16;;;;;;;16.20;10.30;;;7.30;99.90;;;;;;4975931;28;20208;-70
2022/11/14 08:31:41;;;;;;;15.10;10.70;;;7.40;99.90;;;;;;4975572;28;20305;-70
2022/11/14 08:34:07;;;;;;;18.83;10.63;;;7.40;99.90;;;;;;4975872;28;20174;-74
2022/11/14 08:36:32;;;;;;;17.70;10.57;;;7.50;99.90;;;;;;4975365;28;20677;-70
2022/11/14 08:38:58;;;;;;;15.40;10.03;;;7.60;99.90;;;;;;4975630;28;20264;-93
2022/11/14 08:41:23;;;;;;;18.00;10.33;;;7.70;99.90;;;;;;4975790;28;20265;-75
2022/11/14 08:43:49;;;;;;;11.60;10.43;;;7.80;99.90;;;;;;4975378;28;20213;-79
2022/11/14 08:46:14;;;;;;;14.90;10.30;;;8.00;99.90;;;;;;4975347;28;20221;-75
2022/11/14 08:48:40;;;;;;;20.67;12.00;;;8.10;99.90;;;;;;4974821;28;20181;-77
2022/11/14 08:51:06;;;;;;;18.27;11.70;;;8.20;99.90;;;;;;4965408;28;20183;-78
2022/11/14 08:53:33;;;;;;;13.60;9.93;;;8.40;99.90;;;;;;4963827;28;20675;-78
2022/11/14 08:55:58;;;;;;;13.93;9.93;;;8.50;99.90;;;;;;4975274;28;20418;-79
2022/11/14 08:58:27;;;;;;;24.90;12.53;;;8.70;99.90;;;;;;4975446;28;20436;-78
2022/11/14 09:00:53;;;;;;;12.73;9.87;;;8.80;99.90;;;;;;4974982;28;20277;-75
2022/11/14 09:03:18;;;;;;;16.20;11.95;;;8.90;99.90;;;;;;4973173;28;20886;-74
2022/11/14 09:05:50;;;;;;;16.00;10.50;;;9.00;99.90;;;;;;4975003;28;20260;-84
2022/11/14 09:08:16;;;;;;;22.13;12.40;;;9.30;99.90;;;;;;4974461;28;20626;-74
2022/11/14 09:10:42;;;;;;;12.97;11.10;;;9.40;99.90;;;;;;4974698;28;20421;-73
2022/11/14 09:13:07;;;;;;;15.73;11.37;;;9.50;99.90;;;;;;4975003;28;20173;-73
2022/11/14 09:15:33;;;;;;;21.93;11.20;;;9.60;99.90;;;;;;4975050;28;20612;-73
2022/11/14 09:17:58;;;;;;;21.63;12.10;;;9.90;99.90;;;;;;4974912;28;20245;-73
2022/11/14 09:20:25;;;;;;;17.27;13.17;;;10.10;99.90;;;;;;4974627;28;20586;-73
2022/11/14 09:22:52;;;;;;;15.83;11.93;;;10.40;99.90;;;;;;4974734;28;20236;-73
2022/11/14 09:25:19;;;;;;;17.03;12.33;;;10.50;99.90;;;;;;4974936;28;20469;-73
2022/11/14 09:27:44;;;;;;;15.13;11.17;;;10.40;99.90;;;;;;4974851;28;20425;-73
2022/11/14 09:30:11;;;;;;;19.93;12.27;;;10.30;99.90;;;;;;4974226;28;20452;-74
2022/11/14 09:32:36;;;;;;;19.97;12.70;;;10.40;99.90;;;;;;4974353;28;20252;-75
2022/11/14 09:35:02;;;;;;;17.80;12.73;;;10.50;99.90;;;;;;4974395;28;20468;-72
2022/11/14 09:37:28;;;;;;;15.63;13.37;;;10.50;99.90;;;;;;4974737;28;20194;-75
2022/11/14 09:39:53;;;;;;;22.70;13.43;;;10.50;99.90;;;;;;4973798;28;20917;-75
2022/11/14 09:42:57;;;;;;;16.93;13.23;;;10.40;99.90;;;;;;4973713;28;20183;-75
2022/11/14 09:45:24;;;;;;;17.77;13.37;;;10.40;99.90;;;;;;4888517;28;20261;-77
2022/11/14 09:47:54;;;;;;;20.73;13.27;;;10.50;99.90;;;;;;4974178;28;20432;-73
2022/11/14 09:50:26;;;;;;;22.50;13.50;;;10.40;99.90;;;;;;4973894;28;20781;-72
2022/11/14 09:52:55;;;;;;;18.77;13.23;;;10.40;99.90;;;;;;4974404;28;20424;-72
2022/11/14 09:55:26;;;;;;;18.60;14.10;;;10.60;99.90;;;;;;4974481;28;20476;-72
2022/11/14 09:57:51;;;;;;;21.07;15.10;;;10.60;99.90;;;;;;4974278;28;20517;-73
2022/11/14 10:00:20;;;;;;;23.53;14.23;;;10.60;99.90;;;;;;4974197;28;20520;-72
2022/11/14 10:02:55;;;;;;;22.13;13.73;;;10.70;99.90;;;;;;4973770;28;20209;-73
2022/11/14 10:06:06;;;;;;;20.73;14.10;;;10.50;99.90;;;;;;4973870;28;20435;-74
2022/11/14 10:08:52;;;;;;;21.43;15.27;;;10.60;99.90;;;;;;4876867;29;20843;-73
2022/11/14 10:11:30;;;;;;;38.30;19.50;;;10.60;99.90;;;;;;4876603;29;20952;-73
2022/11/14 10:14:03;;;;;;;23.40;15.10;;;10.30;99.90;;;;;;4944019;28;20520;-73
2022/11/14 10:17:10;;;;;;;22.20;14.17;;;10.30;99.90;;;;;;4973413;28;20492;-73
2022/11/14 10:20:03;;;;;;;28.63;16.20;;;10.40;99.90;;;;;;4972956;28;20507;-72
2022/11/14 10:22:48;;;;;;;18.70;12.10;;;10.10;99.90;;;;;;4973378;28;20499;-71
2022/11/14 10:25:19;;;;;;;20.27;12.80;;;10.10;99.90;;;;;;4973381;28;20504;-72
2022/11/14 10:28:00;;;;;;;18.13;13.10;;;10.10;99.90;;;;;;4973655;28;20433;-72
2022/11/14 10:30:39;;;;;;;20.60;13.97;;;10.10;99.90;;;;;;4973691;28;20437;-72
2022/11/14 10:33:23;;;;;;;17.97;12.47;;;10.30;99.90;;;;;;4973727;28;20787;-72
2022/11/14 10:36:04;;;;;;;19.20;13.73;;;10.30;99.90;;;;;;4972744;28;21028;-70
2022/11/14 10:38:55;;;;;;;19.70;13.33;;;10.30;99.90;;;;;;4973798;28;20443;-70
2022/11/14 10:41:24;;;;;;;19.70;12.47;;;10.30;99.90;;;;;;4957883;28;20959;-71
2022/11/14 10:43:50;;;;;;;17.17;11.90;;;10.30;99.90;;;;;;4953339;29;20485;-71
2022/11/14 10:46:31;;;;;;;21.37;13.13;;;10.30;99.90;;;;;;4954262;29;20434;-72
2022/11/14 10:48:58;;;;;;;18.17;13.07;;;10.40;99.90;;;;;;4953586;29;20438;-72
2022/11/14 10:51:43;;;;;;;17.93;13.17;;;10.50;99.90;;;;;;4954288;28;20424;-69
2022/11/14 10:54:08;;;;;;;19.83;12.37;;;10.40;99.90;;;;;;4954084;29;20422;-69
2022/11/14 10:56:34;;;;;;;19.00;12.27;;;10.50;99.90;;;;;;4953275;28;20426;-70
2022/11/14 10:59:00;;;;;;;17.40;12.60;;;10.60;99.90;;;;;;4959180;28;20257;-70
2022/11/14 11:01:43;;;;;;;17.87;13.70;;;10.60;99.90;;;;;;4966282;28;21012;-72
2022/11/14 11:04:23;;;;;;;15.30;12.20;;;10.60;99.90;;;;;;4960438;28;20740;-71
2022/11/14 11:06:51;;;;;;;17.97;12.03;;;10.60;99.90;;;;;;4966540;28;20791;-72
2022/11/14 11:12:05;;;;;;;17.67;12.97;;;10.60;99.90;;;;;;4966634;28;20437;-71
2022/11/14 11:14:31;;;;;;;20.30;13.50;;;10.70;99.90;;;;;;4964104;28;20429;-72
2022/11/14 11:17:20;;;;;;;19.70;13.90;;;10.80;99.90;;;;;;4964652;28;20436;-74
2022/11/14 11:19:47;;;;;;;16.33;11.80;;;10.90;99.90;;;;;;4956270;28;20442;-71
2022/11/14 11:22:37;;;;;;;20.13;12.73;;;10.90;99.90;;;;;;4961185;28;20440;-71
2022/11/14 11:25:25;;;;;;;16.93;12.17;;;10.90;99.90;;;;;;4962880;28;20508;-70
2022/11/14 11:28:09;;;;;;;19.27;12.60;;;11.00;99.90;;;;;;4967522;28;20429;-70
2022/11/14 11:30:36;;;;;;;18.50;12.70;;;11.10;99.90;;;;;;4966087;28;20525;-71
2022/11/14 11:33:20;;;;;;;16.77;10.87;;;11.40;99.90;;;;;;4972737;28;20433;-70
2022/11/14 11:35:49;;;;;;;17.13;12.13;;;11.50;99.90;;;;;;4962432;28;20527;-71
2022/11/14 11:38:16;;;;;;;15.80;11.70;;;11.60;99.90;;;;;;4968838;28;20428;-71
2022/11/14 11:40:49;;;;;;;15.73;10.93;;;11.80;99.90;;;;;;4969593;28;20519;-71
2022/11/14 11:43:20;;;;;;;15.33;11.30;;;12.00;99.90;;;;;;4964086;28;20557;-71
2022/11/14 11:45:47;;;;;;;15.73;11.63;;;12.10;99.90;;;;;;4969375;28;20432;-71
2022/11/14 11:48:21;;;;;;;15.93;12.83;;;12.20;99.90;;;;;;4970338;28;21072;-71
2022/11/14 11:50:48;;;;;;;14.93;11.10;;;12.10;99.90;;;;;;4967377;28;20434;-71
2022/11/14 11:53:27;;;;;;;15.23;10.57;;;12.10;99.90;;;;;;4965949;28;20429;-71
2022/11/14 11:55:59;;;;;;;16.00;11.50;;;12.10;99.90;;;;;;4966787;28;20416;-71
2022/11/14 11:58:31;;;;;;;18.13;10.87;;;11.90;99.90;;;;;;4966676;28;20464;-71
2022/11/14 12:00:57;;;;;;;17.33;10.23;;;11.90;99.90;;;;;;4965875;28;20576;-71
2022/11/14 12:03:24;;;;;;;17.77;11.80;;;11.90;99.90;;;;;;4965632;28;20568;-71
2022/11/14 12:06:07;;;;;;;14.33;10.57;;;12.00;99.90;;;;;;4963815;28;20174;-71
2022/11/14 12:08:55;;;;;;;13.70;10.40;;;12.10;99.90;;;;;;4958282;28;20441;-71
2022/11/14 12:11:25;;;;;;;17.23;11.30;;;12.00;99.90;;;;;;4973388;28;20425;-71
2022/11/14 12:14:17;;;;;;;14.07;10.20;;;12.00;99.90;;;;;;4962180;28;20480;-71
2022/11/14 12:17:10;;;;;;;46.23;23.30;;;12.10;99.90;;;;;;4964643;28;20430;-76
2022/11/14 12:19:57;;;;;;;13.20;9.80;;;12.20;99.90;;;;;;4973320;28;20438;-79
2022/11/14 12:22:52;;;;;;;19.63;12.33;;;12.40;99.90;;;;;;4971818;28;20483;-79
2022/11/14 12:25:41;;;;;;;18.57;11.47;;;12.60;99.90;;;;;;4963074;28;20433;-80
2022/11/14 12:28:33;;;;;;;17.33;11.60;;;12.40;99.90;;;;;;4968371;28;20429;-77
2022/11/14 12:31:02;;;;;;;14.77;10.60;;;12.50;99.90;;;;;;4930002;28;20834;-82
2022/11/14 12:33:35;;;;;;;17.37;12.10;;;12.50;99.90;;;;;;4975691;28;20436;-72
2022/11/14 12:36:04;;;;;;;13.63;9.13;;;12.40;99.90;;;;;;4975213;28;20953;-70
2022/11/14 12:38:41;;;;;;;13.10;9.87;;;12.30;99.90;;;;;;4974207;28;20426;-69
2022/11/14 12:41:08;;;;;;;12.43;9.03;;;12.20;99.90;;;;;;4975052;28;20432;-70
2022/11/14 12:43:37;;;;;;;13.80;10.23;;;12.20;99.90;;;;;;4968149;28;20484;-70
2022/11/14 12:46:10;;;;;;;13.33;9.53;;;12.10;99.90;;;;;;4957761;28;20505;-70
2022/11/14 12:48:43;;;;;;;12.07;9.20;;;12.00;99.90;;;;;;4955835;29;20462;-71
2022/11/14 12:51:47;;;;;;;14.97;9.77;;;12.00;99.90;;;;;;4955861;29;20894;-71
2022/11/14 12:54:41;;;;;;;11.30;9.23;;;12.10;99.90;;;;;;4907426;29;20434;-70
2022/11/14 12:57:46;;;;;;;17.93;9.97;;;12.10;99.90;;;;;;4963448;28;20433;-70
2022/11/14 13:00:06;;;;;;;13.67;9.43;;;12.10;99.90;;;;;;4958263;28;20454;-69
2022/11/14 13:03:09;;;;;;;11.40;9.70;;;12.00;99.90;;;;;;4955808;29;20442;-70
2022/11/14 13:06:02;;;;;;;15.50;10.00;;;12.00;99.90;;;;;;4955655;29;20488;-70
2022/11/14 13:08:42;;;;;;;12.30;9.77;;;11.90;99.90;;;;;;4955474;29;20429;-69
2022/11/14 13:21:44;;;;;;;10.27;8.50;;;11.90;99.90;;;;;;4955644;29;20425;-69
2022/11/14 13:23:28;;;;;;;11.40;8.57;;;12.10;99.90;;;;;;4955658;29;20487;-71
2022/11/14 13:26:12;;;;;;;12.10;9.43;;;12.10;99.90;;;;;;4955228;29;20477;-72
2022/11/14 13:28:38;;;;;;;11.60;8.23;;;12.20;99.90;;;;;;4959217;28;20437;-71
2022/11/14 13:31:15;;;;;;;11.80;8.50;;;12.10;99.90;;;;;;4974250;28;20459;-71
2022/11/14 13:33:42;;;;;;;11.77;9.03;;;12.20;99.90;;;;;;4974367;28;20191;-70
2022/11/14 13:36:44;;;;;;;13.47;8.87;;;12.10;99.90;;;;;;4974358;28;20425;-71
2022/11/14 13:39:34;;;;;;;12.73;8.90;;;12.00;99.90;;;;;;4969889;28;20437;-73
2022/11/14 13:42:10;;;;;;;12.20;8.93;;;12.00;99.90;;;;;;4974241;28;20857;-71
2022/11/14 13:44:56;;;;;;;12.20;9.33;;;12.00;99.90;;;;;;4974183;28;20507;-71
2022/11/14 13:47:24;;;;;;;15.67;10.30;;;11.90;99.90;;;;;;4974430;28;20448;-71
2022/11/14 13:50:02;;;;;;;11.43;9.53;;;11.90;99.90;;;;;;4973974;28;20435;-71
2022/11/14 13:52:31;;;;;;;13.27;9.37;;;11.80;99.90;;;;;;4956735;28;20433;-72
2022/11/14 13:54:58;;;;;;;10.67;8.87;;;11.80;99.90;;;;;;4973733;28;20525;-71
2022/11/14 13:57:33;;;;;;;15.17;8.73;;;11.80;99.90;;;;;;4974173;28;20447;-71
2022/11/14 14:00:05;;;;;;;13.87;8.70;;;11.80;99.90;;;;;;4973977;28;20421;-72
2022/11/14 14:03:10;;;;;;;11.57;10.03;;;11.80;99.90;;;;;;4956220;28;20432;-71
2022/11/14 14:05:38;;;;;;;12.43;9.20;;;11.80;99.90;;;;;;4955442;28;20429;-73
2022/11/14 14:08:27;;;;;;;12.93;9.23;;;11.80;99.90;;;;;;4973709;28;20441;-72
2022/11/14 14:11:11;;;;;;;12.37;9.27;;;11.90;99.90;;;;;;4972947;28;20440;-71
2022/11/14 14:14:18;;;;;;;13.43;7.67;;;12.10;99.90;;;;;;4973646;28;20424;-71
2022/11/14 14:16:55;;;;;;;11.77;9.97;;;12.00;99.90;;;;;;4973752;28;20991;-71
2022/11/14 14:19:48;;;;;;;12.63;9.00;;;12.10;99.90;;;;;;4973762;28;20460;-72
2022/11/14 14:22:40;;;;;;;17.50;8.43;;;12.10;99.90;;;;;;4956139;28;20421;-71
2022/11/14 14:25:22;;;;;;;13.43;9.97;;;12.10;99.90;;;;;;4973542;28;20544;-71
2022/11/14 14:28:45;;;;;;;12.77;9.23;;;12.20;99.90;;;;;;4973540;28;20761;-72
2022/11/14 14:31:15;;;;;;;13.53;9.80;;;12.10;99.90;;;;;;4875943;29;21073;-71
2022/11/14 14:33:43;;;;;;;12.03;10.57;;;12.10;99.90;;;;;;4876344;29;20429;-71
2022/11/14 14:36:24;;;;;;;12.20;9.30;;;12.20;99.90;;;;;;4926068;28;20576;-70
2022/11/14 14:39:05;;;;;;;12.30;10.63;;;12.20;99.90;;;;;;4973491;28;20519;-70
2022/11/14 14:41:31;;;;;;;19.00;13.47;;;12.20;99.90;;;;;;4973359;28;20496;-70
2022/11/14 14:43:58;;;;;;;18.83;13.30;;;12.10;99.90;;;;;;4973257;28;20563;-70
2022/11/14 14:46:30;;;;;;;14.40;10.50;;;12.00;99.90;;;;;;4967699;28;20808;-69
2022/11/14 14:48:58;;;;;;;14.23;10.37;;;11.90;99.90;;;;;;4961202;28;20437;-70
2022/11/14 14:51:35;;;;;;;12.27;9.40;;;12.00;99.90;;;;;;4964497;28;20516;-71
2022/11/14 14:54:00;;;;;;;14.80;11.27;;;12.00;99.90;;;;;;4945723;28;20441;-71
2022/11/14 14:56:27;;;;;;;13.87;9.70;;;12.00;99.90;;;;;;4959589;28;20433;-71
2022/11/14 14:58:53;;;;;;;12.63;8.83;;;11.90;99.90;;;;;;4961960;28;20244;-70
2022/11/14 15:01:34;;;;;;;13.20;9.70;;;11.90;99.90;;;;;;4962882;28;20433;-70
2022/11/14 15:04:05;;;;;;;13.90;9.40;;;11.80;99.90;;;;;;4945878;28;20469;-70
2022/11/14 15:06:36;;;;;;;14.93;10.30;;;11.70;99.90;;;;;;4964563;28;20438;-71
2022/11/14 15:09:20;;;;;;;13.80;9.43;;;11.80;99.90;;;;;;4963293;28;20425;-72
2022/11/14 15:11:49;;;;;;;12.07;9.40;;;11.80;99.90;;;;;;4962555;28;20810;-71
2022/11/14 15:14:18;;;;;;;13.37;10.80;;;11.70;99.90;;;;;;4958911;28;20442;-71
2022/11/14 15:16:48;;;;;;;17.17;11.63;;;11.50;99.90;;;;;;4959157;28;20421;-70
2022/11/14 15:19:17;;;;;;;14.40;10.63;;;11.60;99.90;;;;;;4958840;28;20894;-72
2022/11/14 15:21:42;;;;;;;13.00;8.97;;;11.60;99.90;;;;;;4958809;28;20461;-71
2022/11/14 15:24:14;;;;;;;16.43;9.83;;;11.60;99.90;;;;;;4965721;28;20930;-72
2022/11/14 15:26:43;;;;;;;14.93;9.97;;;11.80;99.90;;;;;;4958578;28;20213;-72
2022/11/14 15:29:16;;;;;;;13.33;9.27;;;11.80;99.90;;;;;;4965500;28;20445;-72
2022/11/14 15:31:48;;;;;;;11.93;9.97;;;11.80;99.90;;;;;;4960684;28;20938;-72
2022/11/14 15:34:32;;;;;;;22.23;15.97;;;11.90;99.90;;;;;;4962748;28;20890;-72
2022/11/14 15:37:09;;;;;;;14.63;10.20;;;11.80;99.90;;;;;;4962196;28;20433;-73
2022/11/14 15:39:36;;;;;;;14.63;10.70;;;11.60;99.90;;;;;;4955603;28;20527;-71
2022/11/14 15:42:19;;;;;;;15.03;12.00;;;11.60;99.90;;;;;;4965148;28;20429;-72
2022/11/14 15:44:46;;;;;;;22.80;10.30;;;11.50;99.90;;;;;;4941917;28;20454;-73
2022/11/14 15:47:27;;;;;;;12.63;10.20;;;11.50;99.90;;;;;;4964362;28;20480;-73
2022/11/14 15:50:02;;;;;;;12.87;8.93;;;11.50;99.90;;;;;;4953482;29;20418;-72
2022/11/14 15:52:46;;;;;;;15.55;9.93;;;11.50;99.90;;;;;;4955198;28;20569;-74
2022/11/14 15:55:17;;;;;;;13.00;9.80;;;11.60;99.90;;;;;;4953483;29;20209;-74
2022/11/14 15:57:42;;;;;;;12.47;8.97;;;11.70;99.90;;;;;;4953629;29;20445;-73
2022/11/14 16:00:15;;;;;;;14.70;9.97;;;11.70;99.90;;;;;;4953591;29;20433;-74
2022/11/14 16:03:01;;;;;;;12.30;8.80;;;11.70;99.90;;;;;;4953188;29;20498;-76
2022/11/14 16:05:30;;;;;;;13.23;10.30;;;11.70;99.90;;;;;;4952185;29;20491;-75
2022/11/14 16:07:56;;;;;;;11.10;9.30;;;11.80;99.90;;;;;;4953249;29;20205;-76
2022/11/14 16:10:24;;;;;;;10.90;9.37;;;11.90;99.90;;;;;;4953091;29;20530;-73
2022/11/14 16:12:50;;;;;;;12.13;8.77;;;11.80;99.90;;;;;;4955104;28;20430;-76
2022/11/14 16:15:16;;;;;;;12.97;8.50;;;11.70;99.90;;;;;;4956059;29;20430;-77
2022/11/14 16:17:44;;;;;;;12.20;9.67;;;11.70;99.90;;;;;;4956975;29;20189;-77
2022/11/14 16:20:15;;;;;;;11.97;8.93;;;11.80;99.90;;;;;;4956166;29;20520;-78
2022/11/14 16:22:44;;;;;;;17.53;8.80;;;11.80;99.90;;;;;;4956442;29;20652;-78
2022/11/14 16:25:18;;;;;;;12.90;8.60;;;11.80;99.90;;;;;;4956075;29;20968;-73
2022/11/14 16:27:44;;;;;;;11.40;8.30;;;11.70;99.90;;;;;;4956076;29;20664;-75
2022/11/14 16:30:14;;;;;;;11.07;8.43;;;11.70;99.90;;;;;;4956389;29;20518;-75
2022/11/14 16:32:45;;;;;;;14.20;9.27;;;11.70;99.90;;;;;;4956390;29;20476;-79
2022/11/14 16:35:16;;;;;;;11.77;10.30;;;11.60;99.90;;;;;;4956236;29;20513;-78
2022/11/14 16:37:42;;;;;;;11.57;9.83;;;11.60;99.90;;;;;;4956403;29;20857;-75
2022/11/14 16:40:24;;;;;;;13.50;10.70;;;11.60;99.90;;;;;;4956314;29;20481;-77
2022/11/14 16:42:50;;;;;;;13.47;9.17;;;11.60;99.90;;;;;;4955671;29;20464;-73
2022/11/14 16:45:16;;;;;;;13.57;10.30;;;11.60;99.90;;;;;;4956304;29;20528;-74
2022/11/14 16:47:41;;;;;;;19.97;9.50;;;11.60;99.90;;;;;;4956106;29;20186;-74
2022/11/14 16:50:07;;;;;;;14.30;10.20;;;11.60;99.90;;;;;;4956012;29;20434;-74
2022/11/14 16:52:33;;;;;;;12.07;9.53;;;11.60;99.90;;;;;;4956008;29;20182;-74
2022/11/14 16:54:59;;;;;;;12.40;9.17;;;11.60;99.90;;;;;;4956049;29;20476;-71
2022/11/14 16:57:24;;;;;;;13.90;9.87;;;11.50;99.90;;;;;;4956161;29;20190;-79
2022/11/14 16:59:52;;;;;;;15.10;10.13;;;11.50;99.90;;;;;;4954624;29;20193;-75
2022/11/14 17:02:18;;;;;;;12.80;10.50;;;11.60;99.90;;;;;;4955422;29;20645;-74
2022/11/14 17:04:44;;;;;;;13.77;9.83;;;11.50;99.90;;;;;;4955605;29;20482;-76
2022/11/14 17:07:12;;;;;;;13.20;9.17;;;11.50;99.90;;;;;;4955791;29;20523;-75
2022/11/14 17:09:38;;;;;;;12.47;9.30;;;11.50;99.90;;;;;;4958597;28;20198;-76